<?xml version="1.0" encoding="UTF-8" standalone="no" ?>
<gpx xmlns="http://www.topografix.com/GPX/1/1" xmlns:xsi="http://www.w3.org/2001/XMLSchema-instance" xsi:schemaLocation="http://www.topografix.com/GPX/1/1 http://www.topografix.com/GPX/1/1/gpx.xsd" version="1.1" creator="VisuGPX - https://www.visugpx.com">
  <metadata>
    <name>Raid VTT IFV 2022 de l'enfer</name>
    <desc><![CDATA[Tracé du raid avec le découpage en segments de guidage individuels avec thème d'animation imposé]]></desc>
  </metadata>
  <trk>
    <name><![CDATA[J2 - RUN 4 - Thibaud]]></name>
    <desc><![CDATA[Physiologie : l'alimentation en raid]]></desc>
    <extensions>
      <line xmlns="http://www.topografix.com/GPX/gpx_style/0/2">
        <color>00ffff</color>
        <width>4</width>
        <dasharray>8</dasharray>
          <extensions>
            <sens>1</sens>
          </extensions>
      </line>
    </extensions>
    <trkseg>
      <trkpt lat="44.05767" lon="6.51442">
        <ele>1473.68359375</ele>
      </trkpt>
      <trkpt lat="44.05788" lon="6.51453">
        <ele>1472.78125</ele>
      </trkpt>
      <trkpt lat="44.0579" lon="6.51455">
        <ele>1474</ele>
        <time>1990-12-07T11:41:38Z</time>
      </trkpt>
      <trkpt lat="44.05828" lon="6.51397">
        <ele>1468</ele>
        <time>1990-12-07T11:41:10Z</time>
      </trkpt>
      <trkpt lat="44.05855" lon="6.51292">
        <ele>1465</ele>
        <time>1990-12-07T11:40:40Z</time>
      </trkpt>
      <trkpt lat="44.05867" lon="6.51215">
        <ele>1459</ele>
        <time>1990-12-07T11:40:11Z</time>
      </trkpt>
      <trkpt lat="44.05897" lon="6.51173">
        <ele>1452</ele>
        <time>1990-12-07T11:39:49Z</time>
      </trkpt>
      <trkpt lat="44.05937" lon="6.5116">
        <ele>1447</ele>
        <time>1990-12-07T11:39:29Z</time>
      </trkpt>
      <trkpt lat="44.05982" lon="6.51168">
        <ele>1443</ele>
        <time>1990-12-07T11:39:10Z</time>
      </trkpt>
      <trkpt lat="44.06048" lon="6.51187">
        <ele>1438</ele>
        <time>1990-12-07T11:38:43Z</time>
      </trkpt>
      <trkpt lat="44.06058" lon="6.5118">
        <ele>1437</ele>
        <time>1990-12-07T11:38:34Z</time>
      </trkpt>
      <trkpt lat="44.06005" lon="6.51093">
        <ele>1435</ele>
        <time>1990-12-07T11:38:16Z</time>
      </trkpt>
      <trkpt lat="44.05963" lon="6.51052">
        <ele>1439</ele>
        <time>1990-12-07T11:38:07Z</time>
      </trkpt>
      <trkpt lat="44.05922" lon="6.51008">
        <ele>1444</ele>
        <time>1990-12-07T11:37:58Z</time>
      </trkpt>
      <trkpt lat="44.05892" lon="6.50987">
        <ele>1448</ele>
        <time>1990-12-07T11:37:51Z</time>
      </trkpt>
      <trkpt lat="44.05853" lon="6.50965">
        <ele>1453</ele>
        <time>1990-12-07T11:37:42Z</time>
      </trkpt>
      <trkpt lat="44.0581" lon="6.50922">
        <ele>1457</ele>
        <time>1990-12-07T11:37:31Z</time>
      </trkpt>
      <trkpt lat="44.0581" lon="6.50867">
        <ele>1461</ele>
        <time>1990-12-07T11:37:20Z</time>
      </trkpt>
      <trkpt lat="44.05833" lon="6.5081">
        <ele>1467</ele>
        <time>1990-12-07T11:37:08Z</time>
      </trkpt>
      <trkpt lat="44.05838" lon="6.50782">
        <ele>1470</ele>
        <time>1990-12-07T11:37:03Z</time>
      </trkpt>
      <trkpt lat="44.05857" lon="6.507">
        <ele>1476</ele>
        <time>1990-12-07T11:36:52Z</time>
      </trkpt>
      <trkpt lat="44.05887" lon="6.50597">
        <ele>1480</ele>
        <time>1990-12-07T11:36:35Z</time>
      </trkpt>
      <trkpt lat="44.05935" lon="6.5053">
        <ele>1479</ele>
        <time>1990-12-07T11:36:18Z</time>
      </trkpt>
      <trkpt lat="44.05985" lon="6.50413">
        <ele>1477</ele>
        <time>1990-12-07T11:35:52Z</time>
      </trkpt>
      <trkpt lat="44.06012" lon="6.50385">
        <ele>1480</ele>
        <time>1990-12-07T11:34:26Z</time>
      </trkpt>
      <trkpt lat="44.06047" lon="6.50323">
        <ele>1480</ele>
        <time>1990-12-07T11:34:00Z</time>
      </trkpt>
      <trkpt lat="44.0609" lon="6.50203">
        <ele>1481</ele>
        <time>1990-12-07T11:33:43Z</time>
      </trkpt>
      <trkpt lat="44.06197" lon="6.5002">
        <ele>1485</ele>
        <time>1990-12-07T11:33:19Z</time>
      </trkpt>
      <trkpt lat="44.06232" lon="6.49997">
        <ele>1490</ele>
        <time>1990-12-07T11:33:12Z</time>
      </trkpt>
      <trkpt lat="44.06252" lon="6.49997">
        <ele>1493</ele>
        <time>1990-12-07T11:33:08Z</time>
      </trkpt>
      <trkpt lat="44.06278" lon="6.49982">
        <ele>1495</ele>
        <time>1990-12-07T11:32:32Z</time>
      </trkpt>
      <trkpt lat="44.06298" lon="6.49932">
        <ele>1492</ele>
        <time>1990-12-07T11:32:16Z</time>
      </trkpt>
      <trkpt lat="44.06297" lon="6.49853">
        <ele>1491</ele>
        <time>1990-12-07T11:32:03Z</time>
      </trkpt>
      <trkpt lat="44.063" lon="6.4983">
        <ele>1491</ele>
        <time>1990-12-07T11:31:59Z</time>
      </trkpt>
      <trkpt lat="44.06353" lon="6.49702">
        <ele>1488</ele>
        <time>1990-12-07T11:31:29Z</time>
      </trkpt>
      <trkpt lat="44.0639" lon="6.49638">
        <ele>1490</ele>
        <time>1990-12-07T11:31:18Z</time>
      </trkpt>
      <trkpt lat="44.06425" lon="6.49605">
        <ele>1493</ele>
        <time>1990-12-07T11:31:09Z</time>
      </trkpt>
      <trkpt lat="44.06498" lon="6.4956">
        <ele>1497</ele>
        <time>1990-12-07T11:30:47Z</time>
      </trkpt>
      <trkpt lat="44.06503" lon="6.49552">
        <ele>1498</ele>
        <time>1990-12-07T11:22:26Z</time>
      </trkpt>
      <trkpt lat="44.06508" lon="6.49518">
        <ele>1495</ele>
        <time>1990-12-07T11:13:44Z</time>
      </trkpt>
      <trkpt lat="44.0651" lon="6.49438">
        <ele>1495</ele>
        <time>1990-12-07T11:13:24Z</time>
      </trkpt>
      <trkpt lat="44.06508" lon="6.49407">
        <ele>1495</ele>
        <time>1990-12-07T11:13:12Z</time>
      </trkpt>
      <trkpt lat="44.06558" lon="6.49418">
        <ele>1495</ele>
        <time>1990-12-07T11:12:50Z</time>
      </trkpt>
      <trkpt lat="44.06597" lon="6.49452">
        <ele>1494</ele>
        <time>1990-12-07T11:12:30Z</time>
      </trkpt>
      <trkpt lat="44.06653" lon="6.49482">
        <ele>1489</ele>
        <time>1990-12-07T11:12:04Z</time>
      </trkpt>
      <trkpt lat="44.06727" lon="6.49478">
        <ele>1485</ele>
        <time>1990-12-07T11:11:34Z</time>
      </trkpt>
      <trkpt lat="44.06775" lon="6.49518">
        <ele>1480</ele>
        <time>1990-12-07T11:11:07Z</time>
      </trkpt>
      <trkpt lat="44.0684" lon="6.49575">
        <ele>1475</ele>
        <time>1990-12-07T11:10:36Z</time>
      </trkpt>
      <trkpt lat="44.06888" lon="6.49637">
        <ele>1470</ele>
        <time>1990-12-07T11:10:09Z</time>
      </trkpt>
      <trkpt lat="44.06945" lon="6.49657">
        <ele>1464</ele>
        <time>1990-12-07T11:09:42Z</time>
      </trkpt>
      <trkpt lat="44.06987" lon="6.49705">
        <ele>1458</ele>
        <time>1990-12-07T11:09:15Z</time>
      </trkpt>
      <trkpt lat="44.07038" lon="6.49755">
        <ele>1452</ele>
        <time>1990-12-07T11:08:46Z</time>
      </trkpt>
      <trkpt lat="44.07057" lon="6.49798">
        <ele>1448</ele>
        <time>1990-12-07T11:08:27Z</time>
      </trkpt>
      <trkpt lat="44.07085" lon="6.49852">
        <ele>1443</ele>
        <time>1990-12-07T11:08:01Z</time>
      </trkpt>
      <trkpt lat="44.07102" lon="6.49927">
        <ele>1437</ele>
        <time>1990-12-07T11:07:34Z</time>
      </trkpt>
      <trkpt lat="44.07103" lon="6.4999">
        <ele>1431</ele>
        <time>1990-12-07T11:07:10Z</time>
      </trkpt>
      <trkpt lat="44.07117" lon="6.50068">
        <ele>1424</ele>
        <time>1990-12-07T11:06:45Z</time>
      </trkpt>
      <trkpt lat="44.07127" lon="6.50148">
        <ele>1419</ele>
        <time>1990-12-07T11:06:20Z</time>
      </trkpt>
      <trkpt lat="44.07138" lon="6.50207">
        <ele>1414</ele>
        <time>1990-12-07T11:06:02Z</time>
      </trkpt>
      <trkpt lat="44.07138" lon="6.5021">
        <ele>1413</ele>
        <time>1990-12-07T11:05:50Z</time>
      </trkpt>
      <trkpt lat="44.0714" lon="6.50218">
        <ele>1413</ele>
        <time>1990-12-07T11:04:09Z</time>
      </trkpt>
      <trkpt lat="44.07153" lon="6.50278">
        <ele>1408</ele>
        <time>1990-12-07T11:03:47Z</time>
      </trkpt>
      <trkpt lat="44.07153" lon="6.50312">
        <ele>1406</ele>
        <time>1990-12-07T11:03:35Z</time>
      </trkpt>
      <trkpt lat="44.07165" lon="6.50348">
        <ele>1402</ele>
        <time>1990-12-07T11:03:19Z</time>
      </trkpt>
      <trkpt lat="44.07193" lon="6.5042">
        <ele>1396</ele>
        <time>1990-12-07T11:02:51Z</time>
      </trkpt>
      <trkpt lat="44.07215" lon="6.50483">
        <ele>1390</ele>
        <time>1990-12-07T11:02:26Z</time>
      </trkpt>
      <trkpt lat="44.07242" lon="6.50553">
        <ele>1384</ele>
        <time>1990-12-07T11:01:59Z</time>
      </trkpt>
      <trkpt lat="44.07248" lon="6.50605">
        <ele>1380</ele>
        <time>1990-12-07T11:01:42Z</time>
      </trkpt>
      <trkpt lat="44.07267" lon="6.50702">
        <ele>1376</ele>
        <time>1990-12-07T11:01:16Z</time>
      </trkpt>
      <trkpt lat="44.07295" lon="6.50787">
        <ele>1370</ele>
        <time>1990-12-07T11:00:49Z</time>
      </trkpt>
      <trkpt lat="44.07327" lon="6.50863">
        <ele>1363</ele>
        <time>1990-12-07T11:00:20Z</time>
      </trkpt>
      <trkpt lat="44.07353" lon="6.50918">
        <ele>1358</ele>
        <time>1990-12-07T10:59:57Z</time>
      </trkpt>
      <trkpt lat="44.07377" lon="6.50962">
        <ele>1353</ele>
        <time>1990-12-07T10:59:38Z</time>
      </trkpt>
      <trkpt lat="44.07423" lon="6.50993">
        <ele>1347</ele>
        <time>1990-12-07T10:59:12Z</time>
      </trkpt>
      <trkpt lat="44.07478" lon="6.51018">
        <ele>1342</ele>
        <time>1990-12-07T10:58:45Z</time>
      </trkpt>
      <trkpt lat="44.07533" lon="6.51037">
        <ele>1336</ele>
        <time>1990-12-07T10:58:19Z</time>
      </trkpt>
      <trkpt lat="44.0755" lon="6.51105">
        <ele>1330</ele>
        <time>1990-12-07T10:57:54Z</time>
      </trkpt>
      <trkpt lat="44.07577" lon="6.51175">
        <ele>1325</ele>
        <time>1990-12-07T10:57:27Z</time>
      </trkpt>
      <trkpt lat="44.07592" lon="6.51228">
        <ele>1321</ele>
        <time>1990-12-07T10:57:09Z</time>
      </trkpt>
      <trkpt lat="44.0763" lon="6.51235">
        <ele>1317</ele>
        <time>1990-12-07T10:56:54Z</time>
      </trkpt>
      <trkpt lat="44.07685" lon="6.51212">
        <ele>1312</ele>
        <time>1990-12-07T10:56:31Z</time>
      </trkpt>
      <trkpt lat="44.07705" lon="6.51145">
        <ele>1306</ele>
        <time>1990-12-07T10:56:06Z</time>
      </trkpt>
      <trkpt lat="44.0769" lon="6.5106">
        <ele>1302</ele>
        <time>1990-12-07T10:55:41Z</time>
      </trkpt>
      <trkpt lat="44.07682" lon="6.51027">
        <ele>1301</ele>
        <time>1990-12-07T10:55:31Z</time>
      </trkpt>
      <trkpt lat="44.07698" lon="6.50958">
        <ele>1295</ele>
        <time>1990-12-07T10:55:06Z</time>
      </trkpt>
      <trkpt lat="44.07732" lon="6.50968">
        <ele>1290</ele>
        <time>1990-12-07T10:54:46Z</time>
      </trkpt>
      <trkpt lat="44.0776" lon="6.51043">
        <ele>1284</ele>
        <time>1990-12-07T10:54:20Z</time>
      </trkpt>
      <trkpt lat="44.07812" lon="6.51027">
        <ele>1279</ele>
        <time>1990-12-07T10:53:57Z</time>
      </trkpt>
      <trkpt lat="44.07842" lon="6.5096">
        <ele>1273</ele>
        <time>1990-12-07T10:53:31Z</time>
      </trkpt>
      <trkpt lat="44.07855" lon="6.50915">
        <ele>1268</ele>
        <time>1990-12-07T10:53:13Z</time>
      </trkpt>
      <trkpt lat="44.0787" lon="6.50848">
        <ele>1262</ele>
        <time>1990-12-07T10:52:50Z</time>
      </trkpt>
      <trkpt lat="44.07923" lon="6.50843">
        <ele>1256</ele>
        <time>1990-12-07T10:52:25Z</time>
      </trkpt>
      <trkpt lat="44.07947" lon="6.5085">
        <ele>1252</ele>
        <time>1990-12-07T10:52:15Z</time>
      </trkpt>
      <trkpt lat="44.08008" lon="6.50883">
        <ele>1247</ele>
        <time>1990-12-07T10:51:50Z</time>
      </trkpt>
      <trkpt lat="44.08038" lon="6.50895">
        <ele>1243</ele>
        <time>1990-12-07T10:51:39Z</time>
      </trkpt>
      <trkpt lat="44.08077" lon="6.50883">
        <ele>1240</ele>
        <time>1990-12-07T10:51:24Z</time>
      </trkpt>
      <trkpt lat="44.08078" lon="6.50942">
        <ele>1236</ele>
        <time>1990-12-07T10:51:01Z</time>
      </trkpt>
      <trkpt lat="44.081" lon="6.51025">
        <ele>1231</ele>
        <time>1990-12-07T10:50:37Z</time>
      </trkpt>
      <trkpt lat="44.0807" lon="6.5108">
        <ele>1227</ele>
        <time>1990-12-07T10:50:17Z</time>
      </trkpt>
      <trkpt lat="44.08077" lon="6.51155">
        <ele>1223</ele>
        <time>1990-12-07T10:49:57Z</time>
      </trkpt>
      <trkpt lat="44.0806" lon="6.51222">
        <ele>1219</ele>
        <time>1990-12-07T10:49:32Z</time>
      </trkpt>
      <trkpt lat="44.081" lon="6.51255">
        <ele>1213</ele>
        <time>1990-12-07T10:49:04Z</time>
      </trkpt>
      <trkpt lat="44.0811" lon="6.51275">
        <ele>1211</ele>
        <time>1990-12-07T10:48:55Z</time>
      </trkpt>
      <trkpt lat="44.08147" lon="6.51263">
        <ele>1205</ele>
        <time>1990-12-07T10:48:32Z</time>
      </trkpt>
      <trkpt lat="44.08197" lon="6.5128">
        <ele>1198</ele>
        <time>1990-12-07T10:48:05Z</time>
      </trkpt>
      <trkpt lat="44.0825" lon="6.51303">
        <ele>1192</ele>
        <time>1990-12-07T10:47:42Z</time>
      </trkpt>
      <trkpt lat="44.08273" lon="6.51312">
        <ele>1187</ele>
        <time>1990-12-07T10:47:29Z</time>
      </trkpt>
      <trkpt lat="44.08325" lon="6.51302">
        <ele>1181</ele>
        <time>1990-12-07T10:47:09Z</time>
      </trkpt>
      <trkpt lat="44.08382" lon="6.51287">
        <ele>1174</ele>
        <time>1990-12-07T10:46:43Z</time>
      </trkpt>
      <trkpt lat="44.08412" lon="6.51242">
        <ele>1171</ele>
        <time>1990-12-07T10:46:26Z</time>
      </trkpt>
      <trkpt lat="44.08425" lon="6.5124">
        <ele>1169</ele>
        <time>1990-12-07T10:46:20Z</time>
      </trkpt>
      <trkpt lat="44.0844" lon="6.51248">
        <ele>1167</ele>
        <time>1990-12-07T10:46:12Z</time>
      </trkpt>
      <trkpt lat="44.08488" lon="6.51222">
        <ele>1160</ele>
        <time>1990-12-07T10:45:49Z</time>
      </trkpt>
      <trkpt lat="44.08527" lon="6.51225">
        <ele>1156</ele>
        <time>1990-12-07T10:45:32Z</time>
      </trkpt>
      <trkpt lat="44.08552" lon="6.51213">
        <ele>1153</ele>
        <time>1990-12-07T10:45:21Z</time>
      </trkpt>
      <trkpt lat="44.08602" lon="6.51208">
        <ele>1147</ele>
        <time>1990-12-07T10:44:58Z</time>
      </trkpt>
      <trkpt lat="44.08653" lon="6.51167">
        <ele>1142</ele>
        <time>1990-12-07T10:44:34Z</time>
      </trkpt>
      <trkpt lat="44.08683" lon="6.51097">
        <ele>1138</ele>
        <time>1990-12-07T10:44:12Z</time>
      </trkpt>
      <trkpt lat="44.08737" lon="6.51047">
        <ele>1133</ele>
        <time>1990-12-07T10:43:43Z</time>
      </trkpt>
      <trkpt lat="44.08787" lon="6.51032">
        <ele>1126</ele>
        <time>1990-12-07T10:43:18Z</time>
      </trkpt>
      <trkpt lat="44.08792" lon="6.51015">
        <ele>1125</ele>
        <time>1990-12-07T10:43:11Z</time>
      </trkpt>
      <trkpt lat="44.0876" lon="6.50897">
        <ele>1122</ele>
        <time>1990-12-07T10:42:39Z</time>
      </trkpt>
      <trkpt lat="44.08702" lon="6.50812">
        <ele>1119</ele>
        <time>1990-12-07T10:42:08Z</time>
      </trkpt>
      <trkpt lat="44.0863" lon="6.50732">
        <ele>1117</ele>
        <time>1990-12-07T10:41:37Z</time>
      </trkpt>
      <trkpt lat="44.08585" lon="6.50657">
        <ele>1115</ele>
        <time>1990-12-07T10:41:07Z</time>
      </trkpt>
      <trkpt lat="44.08578" lon="6.50642">
        <ele>1116</ele>
        <time>1990-12-07T10:40:14Z</time>
      </trkpt>
      <trkpt lat="44.08573" lon="6.50625">
        <ele>1116</ele>
        <time>1990-12-07T10:39:45Z</time>
      </trkpt>
      <trkpt lat="44.08562" lon="6.50615">
        <ele>1116</ele>
        <time>1990-12-07T10:39:37Z</time>
      </trkpt>
      <trkpt lat="44.08498" lon="6.50632">
        <ele>1121</ele>
        <time>1990-12-07T10:39:20Z</time>
      </trkpt>
      <trkpt lat="44.08483" lon="6.50648">
        <ele>1125</ele>
        <time>1990-12-07T10:39:11Z</time>
      </trkpt>
      <trkpt lat="44.08493" lon="6.50575">
        <ele>1127</ele>
        <time>1990-12-07T10:38:52Z</time>
      </trkpt>
      <trkpt lat="44.08492" lon="6.50557">
        <ele>1128</ele>
        <time>1990-12-07T10:38:44Z</time>
      </trkpt>
      <trkpt lat="44.0848" lon="6.50525">
        <ele>1123</ele>
        <time>1990-12-07T10:38:28Z</time>
      </trkpt>
      <trkpt lat="44.08477" lon="6.50482">
        <ele>1121</ele>
        <time>1990-12-07T10:38:15Z</time>
      </trkpt>
      <trkpt lat="44.08507" lon="6.50438">
        <ele>1118</ele>
        <time>1990-12-07T10:37:55Z</time>
      </trkpt>
      <trkpt lat="44.08558" lon="6.50373">
        <ele>1114</ele>
        <time>1990-12-07T10:37:30Z</time>
      </trkpt>
      <trkpt lat="44.08617" lon="6.50308">
        <ele>1112</ele>
        <time>1990-12-07T10:37:09Z</time>
      </trkpt>
      <trkpt lat="44.08703" lon="6.50338">
        <ele>1112</ele>
        <time>1990-12-07T10:36:53Z</time>
      </trkpt>
      <trkpt lat="44.08813" lon="6.50307">
        <ele>1113</ele>
        <time>1990-12-07T10:36:38Z</time>
      </trkpt>
      <trkpt lat="44.08857" lon="6.50303">
        <ele>1116</ele>
        <time>1990-12-07T10:36:33Z</time>
      </trkpt>
      <trkpt lat="44.08915" lon="6.5029">
        <ele>1123</ele>
        <time>1990-12-07T10:36:25Z</time>
      </trkpt>
      <trkpt lat="44.09003" lon="6.50288">
        <ele>1127</ele>
        <time>1990-12-07T10:36:07Z</time>
      </trkpt>
      <trkpt lat="44.09057" lon="6.50257">
        <ele>1129</ele>
        <time>1990-12-07T10:35:57Z</time>
      </trkpt>
      <trkpt lat="44.09083" lon="6.5021">
        <ele>1130</ele>
        <time>1990-12-07T10:35:49Z</time>
      </trkpt>
      <trkpt lat="44.0909" lon="6.50153">
        <ele>1131</ele>
        <time>1990-12-07T10:35:41Z</time>
      </trkpt>
      <trkpt lat="44.09093" lon="6.50075">
        <ele>1130</ele>
        <time>1990-12-07T10:35:29Z</time>
      </trkpt>
      <trkpt lat="44.09078" lon="6.50005">
        <ele>1130</ele>
        <time>1990-12-07T10:35:18Z</time>
      </trkpt>
      <trkpt lat="44.0907" lon="6.49973">
        <ele>1130</ele>
        <time>1990-12-07T10:35:13Z</time>
      </trkpt>
    </trkseg>
  </trk>
</gpx>